This is the latest recevied weather packets stored in our database for station/object SQ5DN-4. If no packets are shown the sender has not sent any weather packets the latest 10 day(s).
| Time | Temp. | Humidity | Pressure | Rain* | Wind** | Luminosity | Snow |
|---|---|---|---|---|---|---|---|
| 1777499847 | 0.56° C | 70% | 1026 hPa | - | - | - | - |
| 1777499272 | 1.11° C | 69% | 1026 hPa | - | - | - | - |
| 1777498787 | 1.11° C | 68% | 1025 hPa | - | - | - | - |
| 1777498196 | 0.56° C | 72% | 1025 hPa | - | - | - | - |
| 1777497632 | 1.11° C | 71% | 1025 hPa | - | - | - | - |
| 1777497116 | 1.67° C | 68% | 1025 hPa | - | - | - | - |
| 1777496602 | 1.67° C | 67% | 1025 hPa | - | - | - | - |
| 1777496022 | 1.67° C | 69% | 1025 hPa | - | - | - | - |
| 1777495502 | 1.67° C | 69% | 1025 hPa | - | - | - | - |
| 1777494942 | 1.11° C | 71% | 1025 hPa | - | - | - | - |
| 1777494387 | 1.67° C | 68% | 1025 hPa | - | - | - | - |
| 1777493896 | 2.22° C | 66% | 1025 hPa | - | - | - | - |
| 1777493296 | 2.22° C | 65% | 1025 hPa | - | - | - | - |
| 1777492716 | 3.33° C | 62% | 1025 hPa | - | - | - | - |
| 1777492187 | 3.33° C | 63% | 1025 hPa | - | - | - | - |
| 1777491612 | 3.33° C | 63% | 1025 hPa | - | - | - | - |
| 1777491064 | 3.89° C | 59% | 1025 hPa | - | - | - | - |
| 1777490536 | 4.44° C | 56% | 1025 hPa | - | - | - | - |
| 1777490052 | 4.44° C | 56% | 1025 hPa | - | - | - | - |
| 1777489471 | 4.44° C | 56% | 1025 hPa | - | - | - | - |
| 1777488987 | 4.44° C | 56% | 1025 hPa | - | - | - | - |
| 1777488477 | 4.44° C | 56% | 1025 hPa | - | - | - | - |
| 1777487987 | 4.44° C | 56% | 1025 hPa | - | - | - | - |
| 1777487492 | 4.44° C | 53% | 1025 hPa | - | - | - | - |
| 1777486962 | 5° C | 52% | 1025 hPa | - | - | - | - |
* Rain since midnight (hover to see other rain measurements)
** Current wind speed in m/s (hover to see current wind gust speed)